CheckWX is a tool to help pilots better visualize weather data.  It is not intended as a substitute for an official pre-flight weather briefing.

11:15:20 UTC

KTCL TAF
Tuscaloosa Regional Airport
Tuscaloosa, Alabama, USA
KTCL 240520Z 2406/2506 00000KT P6SM SKC FM240900 00000KT 6SM BR SKC TEMPO 2410/2413 3SM BR FM241500 20005KT P6SM FEW060

May-24@
06:00 UTC

May-24 @ 06:00 UTC

May-24@
09:00 UTC

May-24 @ 09:00 UTC

KTCL 240520Z 2406/2506 00000KT P6SM SKC

Expired

Cloud Levels
  • Clear skies

May-24@
09:00 UTC

May-24 @ 09:00 UTC

May-24@
15:00 UTC

May-24 @ 15:00 UTC

FM240900 00000KT 6SM BR SKC

From

From Standard forecast or significant change

Conditions
Mist
Cloud Levels
  • Clear skies

May-24@
10:00 UTC

May-24 @ 10:00 UTC

May-24@
13:00 UTC

May-24 @ 13:00 UTC

TEMPO 2410/2413 3SM BR

Temporary

Temporary Changes expected for less than half the time period

Conditions
Mist

May-24@
15:00 UTC

May-24 @ 15:00 UTC

May-25@
06:00 UTC

May-25 @ 06:00 UTC

FM241500 20005KT P6SM FEW060

From

From Standard forecast or significant change

Wind
  • 200° at 5 KTS
Cloud Levels
  • Few at 6,000' AGL